createdAt,value
2023-02-24T00:01:25.738Z,9.30
2023-02-24T00:04:00.275Z,9.30
2023-02-24T00:06:36.900Z,9.30
2023-02-24T00:09:06.791Z,9.30
2023-02-24T00:11:36.283Z,9.20
2023-02-24T00:14:07.525Z,9.20
2023-02-24T00:16:35.263Z,9.20
2023-02-24T00:19:03.655Z,9.20
2023-02-24T00:21:31.116Z,9.20
2023-02-24T00:23:59.510Z,9.10
2023-02-24T00:26:27.160Z,9.10
2023-02-24T00:28:54.507Z,9.00
2023-02-24T00:31:24.355Z,9.00
2023-02-24T00:33:52.500Z,8.90
2023-02-24T00:36:26.727Z,8.90
2023-02-24T00:38:55.854Z,8.80
2023-02-24T00:41:31.329Z,8.80
2023-02-24T00:44:07.377Z,8.80
2023-02-24T00:46:35.905Z,8.80
2023-02-24T00:49:07.436Z,8.70
2023-02-24T00:51:38.501Z,8.70
2023-02-24T00:54:05.851Z,8.60
2023-02-24T00:56:33.773Z,8.50
2023-02-24T00:59:01.707Z,8.50
2023-02-24T01:01:32.111Z,8.40
2023-02-24T01:04:11.441Z,8.40
2023-02-24T01:06:41.580Z,8.30
2023-02-24T01:09:12.208Z,8.30
2023-02-24T01:11:58.436Z,8.30
2023-02-24T01:14:27.430Z,8.30
2023-02-24T01:16:55.899Z,8.20
2023-02-24T01:19:31.510Z,8.20
2023-02-24T01:22:03.804Z,8.20
2023-02-24T01:24:33.085Z,8.20
2023-02-24T01:27:00.425Z,8.20
2023-02-24T01:29:28.542Z,8.10
2023-02-24T01:31:58.867Z,8.10
2023-02-24T01:34:27.178Z,8.20
2023-02-24T01:36:58.009Z,8.20
2023-02-24T01:39:25.990Z,8.20
2023-02-24T01:41:53.365Z,8.10
2023-02-24T01:44:25.117Z,8.10
2023-02-24T01:46:53.284Z,8.10
2023-02-24T01:49:45.933Z,8.00
2023-02-24T01:52:17.489Z,8.00
2023-02-24T01:55:15.064Z,7.90
2023-02-24T01:57:42.522Z,7.90
2023-02-24T02:00:11.734Z,7.80
2023-02-24T02:02:44.825Z,7.80
2023-02-24T02:05:12.451Z,7.80
2023-02-24T02:07:40.390Z,7.70
2023-02-24T02:10:08.540Z,7.70
2023-02-24T02:12:38.489Z,7.70
2023-02-24T02:15:06.443Z,7.70
2023-02-24T02:17:52.318Z,7.70
2023-02-24T02:20:28.662Z,7.70
2023-02-24T02:23:17.554Z,7.70
2023-02-24T02:26:19.729Z,7.60
2023-02-24T02:29:05.111Z,7.60
2023-02-24T02:31:32.624Z,7.60
2023-02-24T02:34:11.865Z,7.60
2023-02-24T02:36:57.368Z,7.70
2023-02-24T02:39:59.261Z,7.70
2023-02-24T02:42:30.239Z,7.60
2023-02-24T02:45:05.193Z,7.70
2023-02-24T02:47:35.007Z,7.70
2023-02-24T02:50:12.270Z,7.60
2023-02-24T02:52:42.634Z,7.60
2023-02-24T02:55:37.938Z,7.60
2023-02-24T02:58:09.192Z,7.50
2023-02-24T03:00:42.101Z,7.50
2023-02-24T03:03:12.764Z,7.50
2023-02-24T03:05:52.041Z,7.40
2023-02-24T03:08:22.109Z,7.40
2023-02-24T03:10:53.394Z,7.40
2023-02-24T03:13:23.102Z,7.40
2023-02-24T03:15:51.684Z,7.30
2023-02-24T03:18:29.063Z,7.30
2023-02-24T03:21:07.630Z,7.20
2023-02-24T03:23:55.358Z,7.20
2023-02-24T03:26:30.652Z,7.20
2023-02-24T03:29:06.583Z,7.20
2023-02-24T03:31:40.641Z,7.20
2023-02-24T03:34:27.743Z,7.10
2023-02-24T03:36:55.999Z,7.10
2023-02-24T03:39:24.032Z,7.10
2023-02-24T03:42:19.032Z,7.10
2023-02-24T03:44:46.672Z,7.10
2023-02-24T03:47:16.174Z,7.00
2023-02-24T03:49:43.845Z,7.00
2023-02-24T03:52:40.658Z,7.00
2023-02-24T03:55:33.200Z,7.10
2023-02-24T03:58:31.295Z,7.00
2023-02-24T04:01:09.454Z,7.00
2023-02-24T04:03:58.917Z,7.00
2023-02-24T04:06:45.008Z,7.00
2023-02-24T04:09:27.489Z,7.00
2023-02-24T04:12:31.213Z,7.00
2023-02-24T04:15:29.552Z,7.00
2023-02-24T04:18:03.348Z,7.10
2023-02-24T04:20:36.370Z,7.10
2023-02-24T04:23:12.353Z,7.10
2023-02-24T04:25:41.906Z,7.00
2023-02-24T04:28:10.325Z,7.00
2023-02-24T04:30:42.570Z,7.00
2023-02-24T04:33:11.808Z,7.40
2023-02-24T04:35:40.631Z,8.30
2023-02-24T04:38:08.546Z,9.00
2023-02-24T04:40:36.978Z,9.50
2023-02-24T04:43:04.278Z,9.90
2023-02-24T04:45:32.296Z,11.30
2023-02-24T04:48:03.594Z,13.70
2023-02-24T04:50:35.570Z,15.50
2023-02-24T04:53:09.389Z,15.90
2023-02-24T04:55:48.625Z,15.70
2023-02-24T04:58:21.297Z,15.40
2023-02-24T05:00:52.551Z,15.20
2023-02-24T05:03:20.914Z,14.90
2023-02-24T05:06:00.074Z,14.80
2023-02-24T05:08:29.026Z,14.70
2023-02-24T05:11:01.085Z,14.60
2023-02-24T05:13:31.671Z,14.50
2023-02-24T05:16:04.110Z,14.30
2023-02-24T05:18:37.193Z,14.70
2023-02-24T05:21:34.358Z,15.40
2023-02-24T05:24:06.755Z,16.20
2023-02-24T05:26:35.890Z,17.00
2023-02-24T05:29:03.944Z,17.20
2023-02-24T05:31:31.297Z,16.10
2023-02-24T05:34:03.191Z,14.60
2023-02-24T05:36:33.224Z,13.10
2023-02-24T05:39:07.565Z,11.80
2023-02-24T05:41:41.690Z,11.00
2023-02-24T05:44:15.800Z,10.30
2023-02-24T05:46:44.932Z,9.80
2023-02-24T05:49:14.374Z,9.40
2023-02-24T05:51:43.531Z,9.10
2023-02-24T05:54:13.170Z,8.80
2023-02-24T05:56:43.835Z,8.60
2023-02-24T05:59:12.434Z,8.40
2023-02-24T06:01:45.826Z,8.30
2023-02-24T06:04:20.899Z,8.20
2023-02-24T06:06:52.558Z,8.10
2023-02-24T06:09:23.096Z,8.00
2023-02-24T06:11:50.747Z,8.00
2023-02-24T06:14:18.087Z,7.90
2023-02-24T06:16:45.428Z,7.90
2023-02-24T06:19:13.426Z,7.80
2023-02-24T06:21:41.464Z,7.70
2023-02-24T06:24:14.592Z,7.70
2023-02-24T06:26:45.738Z,7.60
2023-02-24T06:29:17.296Z,7.60
2023-02-24T06:31:45.152Z,7.60
2023-02-24T06:34:13.900Z,7.50
2023-02-24T06:36:43.048Z,7.50
2023-02-24T06:39:13.586Z,7.50
2023-02-24T06:41:42.499Z,7.50
2023-02-24T06:44:09.919Z,7.50
2023-02-24T06:46:37.364Z,7.60
2023-02-24T06:49:04.659Z,7.60
2023-02-24T06:51:31.959Z,7.60
2023-02-24T06:53:59.706Z,7.60
2023-02-24T06:56:27.479Z,7.60
2023-02-24T06:58:55.902Z,7.60
2023-02-24T07:01:25.733Z,7.70
2023-02-24T07:04:02.906Z,7.70
2023-02-24T07:06:32.079Z,7.70
2023-02-24T07:08:59.429Z,7.70
2023-02-24T07:11:28.734Z,7.80
2023-02-24T07:13:57.532Z,7.70
2023-02-24T07:16:31.057Z,7.70
2023-02-24T07:18:59.352Z,7.70
2023-02-24T07:21:27.544Z,7.70
2023-02-24T07:23:58.861Z,7.70
2023-02-24T07:26:27.739Z,7.70
2023-02-24T07:28:55.175Z,7.80
2023-02-24T07:31:24.269Z,7.90
2023-02-24T07:33:57.195Z,7.90
2023-02-24T07:36:24.741Z,8.00
2023-02-24T07:38:52.887Z,8.20
2023-02-24T07:41:22.853Z,8.30
2023-02-24T07:43:51.744Z,8.50
2023-02-24T07:46:27.987Z,8.60
2023-02-24T07:48:56.095Z,8.60
2023-02-24T07:51:24.737Z,8.60
2023-02-24T07:53:59.291Z,8.60
2023-02-24T07:56:27.760Z,8.60
2023-02-24T07:58:59.408Z,8.60
2023-02-24T08:01:30.456Z,8.60
2023-02-24T08:04:08.018Z,8.70
2023-02-24T08:06:39.700Z,8.80
2023-02-24T08:09:46.067Z,8.90
2023-02-24T08:12:18.014Z,8.90
2023-02-24T08:14:50.892Z,8.90
2023-02-24T08:17:23.478Z,8.90
2023-02-24T08:20:10.936Z,8.90
2023-02-24T08:22:44.007Z,9.00
2023-02-24T08:25:18.192Z,9.10
2023-02-24T08:27:49.396Z,9.20
2023-02-24T08:30:29.878Z,9.30
2023-02-24T08:32:57.439Z,9.30
2023-02-24T08:35:31.932Z,9.40
2023-02-24T08:38:07.714Z,9.40
2023-02-24T08:40:51.726Z,9.50
2023-02-24T08:43:30.099Z,9.50
2023-02-24T08:46:13.223Z,9.50
2023-02-24T08:48:42.627Z,9.50
2023-02-24T08:51:30.551Z,9.50
2023-02-24T08:53:59.567Z,9.50
2023-02-24T08:56:28.633Z,9.50
2023-02-24T08:59:05.468Z,9.60
2023-02-24T09:01:40.110Z,9.60
2023-02-24T09:04:08.507Z,9.60
2023-02-24T09:06:43.337Z,9.70
2023-02-24T09:09:17.821Z,9.70
2023-02-24T09:11:56.364Z,9.80
2023-02-24T09:14:37.360Z,9.80
2023-02-24T09:17:07.269Z,9.90
2023-02-24T09:19:47.704Z,10.00
2023-02-24T09:22:31.221Z,10.20
2023-02-24T09:25:21.944Z,10.30
2023-02-24T09:28:08.008Z,10.40
2023-02-24T09:30:37.911Z,10.50
2023-02-24T09:33:18.224Z,10.60
2023-02-24T09:35:47.054Z,10.70
2023-02-24T09:38:17.983Z,10.80
2023-02-24T09:40:49.632Z,10.90
2023-02-24T09:43:24.577Z,11.10
2023-02-24T09:46:02.264Z,11.20
2023-02-24T09:48:43.622Z,11.20
2023-02-24T09:51:25.739Z,11.40
2023-02-24T09:53:54.846Z,11.50
2023-02-24T09:56:42.893Z,11.60
2023-02-24T09:59:26.215Z,11.90
2023-02-24T10:02:17.900Z,12.10
2023-02-24T10:04:53.988Z,12.20
2023-02-24T10:07:30.440Z,12.30
2023-02-24T10:10:19.405Z,12.30
2023-02-24T10:12:58.366Z,12.30
2023-02-24T10:15:57.048Z,12.20
2023-02-24T10:18:33.489Z,12.20
2023-02-24T10:21:21.383Z,12.20
2023-02-24T10:24:00.298Z,12.30
2023-02-24T10:26:32.834Z,12.30
2023-02-24T10:29:22.668Z,12.40
2023-02-24T10:31:57.769Z,12.50
2023-02-24T10:34:31.792Z,12.60
2023-02-24T10:37:14.052Z,12.70
2023-02-24T10:39:51.888Z,12.80
2023-02-24T10:42:31.792Z,12.80
2023-02-24T10:45:18.266Z,12.70
2023-02-24T10:47:57.615Z,12.80
2023-02-24T10:50:55.487Z,12.70
2023-02-24T10:53:37.672Z,12.80
2023-02-24T10:56:26.565Z,12.90
2023-02-24T10:59:40.714Z,12.90
2023-02-24T11:02:30.034Z,12.90
2023-02-24T11:05:02.551Z,13.10
2023-02-24T11:07:43.997Z,13.10
2023-02-24T11:10:26.158Z,13.10
2023-02-24T11:13:13.471Z,13.20
2023-02-24T11:16:09.728Z,13.10
2023-02-24T11:18:37.162Z,13.10
2023-02-24T11:21:06.055Z,13.10
2023-02-24T11:23:51.081Z,13.20
2023-02-24T11:26:23.258Z,13.20
2023-02-24T11:30:03.853Z,13.20
2023-02-24T11:32:59.632Z,13.30
2023-02-24T11:35:36.854Z,13.40
2023-02-24T11:38:18.093Z,13.50
2023-02-24T11:40:48.397Z,13.50
2023-02-24T11:43:21.057Z,13.50
2023-02-24T11:46:02.238Z,13.40
2023-02-24T11:48:34.055Z,13.40
2023-02-24T11:51:18.318Z,13.40
2023-02-24T11:54:13.167Z,13.30
2023-02-24T11:56:45.177Z,13.20
2023-02-24T11:59:31.317Z,13.20
2023-02-24T12:02:30.256Z,13.10
2023-02-24T12:05:14.710Z,13.00
2023-02-24T12:07:44.352Z,12.90
2023-02-24T12:10:29.215Z,12.90
2023-02-24T12:13:02.706Z,12.90
2023-02-24T12:15:38.955Z,12.90
2023-02-24T12:18:14.900Z,12.90
2023-02-24T12:20:52.848Z,12.70
2023-02-24T12:23:26.308Z,12.60
2023-02-24T12:26:15.934Z,12.60
2023-02-24T12:29:07.595Z,12.50
2023-02-24T12:31:37.789Z,12.50
2023-02-24T12:34:29.765Z,12.50
2023-02-24T12:37:28.248Z,12.50
2023-02-24T12:40:01.371Z,12.50
2023-02-24T12:42:48.449Z,12.50
2023-02-24T12:45:22.021Z,12.40
2023-02-24T12:48:26.470Z,12.40
2023-02-24T12:51:25.457Z,12.50
2023-02-24T12:54:06.651Z,12.50
2023-02-24T12:56:38.350Z,12.40
2023-02-24T12:59:06.131Z,12.40
2023-02-24T13:01:36.502Z,12.30
2023-02-24T13:04:26.166Z,12.30
2023-02-24T13:07:17.370Z,12.30
2023-02-24T13:10:01.487Z,12.30
2023-02-24T13:12:53.096Z,12.30
2023-02-24T13:15:25.571Z,12.40
2023-02-24T13:17:55.737Z,12.40
2023-02-24T13:20:38.039Z,12.40
2023-02-24T13:23:21.146Z,12.30
2023-02-24T13:25:52.425Z,12.30
2023-02-24T13:28:27.786Z,12.30
2023-02-24T13:31:02.327Z,12.40
2023-02-24T13:33:39.077Z,12.30
2023-02-24T13:36:21.702Z,12.30
2023-02-24T13:39:06.174Z,12.30
2023-02-24T13:41:35.666Z,12.30
2023-02-24T13:44:21.321Z,12.30
2023-02-24T13:47:11.694Z,12.30
2023-02-24T13:50:18.723Z,12.40
2023-02-24T13:53:04.938Z,12.40
2023-02-24T13:55:47.259Z,12.40
2023-02-24T13:58:28.490Z,12.40
2023-02-24T14:01:05.511Z,12.30
2023-02-24T14:03:33.113Z,12.30
2023-02-24T14:06:01.491Z,12.30
2023-02-24T14:08:56.028Z,12.30
2023-02-24T14:11:28.876Z,12.30
2023-02-24T14:13:56.771Z,12.30
2023-02-24T14:16:29.757Z,12.20
2023-02-24T14:19:03.341Z,12.20
2023-02-24T14:21:32.360Z,12.10
2023-02-24T14:24:12.696Z,12.10
2023-02-24T14:26:48.794Z,12.10
2023-02-24T14:29:27.352Z,12.00
2023-02-24T14:31:55.453Z,12.10
2023-02-24T14:34:24.564Z,12.00
2023-02-24T14:36:59.595Z,12.00
2023-02-24T14:39:31.251Z,11.90
2023-02-24T14:42:11.319Z,11.90
2023-02-24T14:44:47.136Z,11.90
2023-02-24T14:47:15.444Z,11.80
2023-02-24T14:49:51.105Z,11.80
2023-02-24T14:52:41.990Z,11.80
2023-02-24T14:55:27.646Z,11.80
2023-02-24T14:58:02.852Z,11.70
2023-02-24T15:00:36.439Z,11.60
2023-02-24T15:03:13.147Z,11.50
2023-02-24T15:05:49.043Z,11.50
2023-02-24T15:08:21.778Z,11.40
2023-02-24T15:10:49.180Z,11.30
2023-02-24T15:13:43.430Z,11.30
2023-02-24T15:16:17.712Z,11.30
2023-02-24T15:18:45.096Z,11.20
2023-02-24T15:21:20.408Z,11.10
2023-02-24T15:23:47.998Z,11.00
2023-02-24T15:26:51.424Z,11.00
2023-02-24T15:29:25.725Z,10.90
2023-02-24T15:31:53.795Z,10.90
2023-02-24T15:34:29.213Z,10.80
2023-02-24T15:36:58.776Z,10.80
2023-02-24T15:39:27.925Z,10.80
2023-02-24T15:42:28.839Z,10.80
2023-02-24T15:44:57.931Z,10.80
2023-02-24T15:47:31.467Z,10.80
2023-02-24T15:49:59.409Z,10.80
2023-02-24T15:52:28.089Z,10.80
2023-02-24T15:54:56.708Z,10.70
2023-02-24T15:57:25.067Z,10.70
2023-02-24T15:59:52.474Z,10.70
2023-02-24T16:02:21.081Z,10.70
2023-02-24T16:04:48.656Z,10.70
2023-02-24T16:07:28.889Z,10.70
2023-02-24T16:09:56.243Z,10.70
2023-02-24T16:12:32.993Z,10.70
2023-02-24T16:15:04.077Z,10.70
2023-02-24T16:17:32.268Z,10.70
2023-02-24T16:20:00.174Z,10.70
2023-02-24T16:22:27.613Z,10.70
2023-02-24T16:24:55.079Z,10.60
2023-02-24T16:27:22.781Z,10.60
2023-02-24T16:29:51.048Z,10.70
2023-02-24T16:32:21.514Z,10.60
2023-02-24T16:34:49.764Z,10.60
2023-02-24T16:37:27.658Z,10.50
2023-02-24T16:39:55.057Z,10.50
2023-02-24T16:42:22.576Z,10.50
2023-02-24T16:44:50.089Z,10.40
2023-02-24T16:47:23.075Z,10.40
2023-02-24T16:49:50.850Z,10.40
2023-02-24T16:52:19.357Z,10.30
2023-02-24T16:54:48.281Z,10.30
2023-02-24T16:57:16.132Z,10.20
2023-02-24T16:59:43.874Z,10.10
2023-02-24T17:02:18.817Z,10.00
2023-02-24T17:04:46.193Z,9.90
2023-02-24T17:07:14.602Z,9.80
2023-02-24T17:09:42.122Z,9.70
2023-02-24T17:12:12.209Z,9.60
2023-02-24T17:14:39.830Z,9.60
2023-02-24T17:17:07.265Z,9.70
2023-02-24T17:19:34.758Z,9.70
2023-02-24T17:22:02.094Z,9.60
2023-02-24T17:24:29.955Z,9.70
2023-02-24T17:27:01.080Z,9.70
2023-02-24T17:29:28.543Z,9.60
2023-02-24T17:31:57.473Z,9.60
2023-02-24T17:34:24.941Z,9.60
2023-02-24T17:36:52.258Z,9.60
2023-02-24T17:39:19.764Z,9.50
2023-02-24T17:41:47.094Z,9.50
2023-02-24T17:44:14.519Z,9.40
2023-02-24T17:46:41.929Z,9.40
2023-02-24T17:49:09.544Z,9.40
2023-02-24T17:51:36.813Z,9.30
2023-02-24T17:54:04.224Z,9.30
2023-02-24T17:56:31.683Z,9.30
2023-02-24T17:59:01.076Z,9.20
2023-02-24T18:01:28.550Z,9.20
2023-02-24T18:03:57.488Z,9.20
2023-02-24T18:06:25.119Z,9.10
2023-02-24T18:08:52.533Z,9.10
2023-02-24T18:11:20.072Z,9.10
2023-02-24T18:13:50.866Z,9.10
2023-02-24T18:16:18.438Z,9.10
2023-02-24T18:18:45.795Z,9.20
2023-02-24T18:21:13.256Z,9.30
2023-02-24T18:23:40.963Z,9.30
2023-02-24T18:26:09.220Z,9.30
2023-02-24T18:28:36.693Z,9.30
2023-02-24T18:31:14.835Z,9.20
2023-02-24T18:33:42.440Z,9.20
2023-02-24T18:36:10.560Z,9.20
2023-02-24T18:38:37.962Z,9.20
2023-02-24T18:41:10.558Z,9.20
2023-02-24T18:43:37.982Z,9.20
2023-02-24T18:46:06.778Z,9.20
2023-02-24T18:48:34.623Z,9.20
2023-02-24T18:51:02.180Z,9.20
2023-02-24T18:53:31.350Z,9.20
2023-02-24T18:56:06.695Z,9.30
2023-02-24T18:58:34.299Z,9.20
2023-02-24T19:01:01.684Z,9.30
2023-02-24T19:03:29.038Z,9.30
2023-02-24T19:05:56.411Z,9.30
2023-02-24T19:08:23.793Z,9.30
2023-02-24T19:10:51.124Z,9.30
2023-02-24T19:13:18.442Z,9.30
2023-02-24T19:15:45.809Z,9.30
2023-02-24T19:18:13.264Z,9.30
2023-02-24T19:20:43.853Z,9.30
2023-02-24T19:23:11.238Z,9.30
2023-02-24T19:25:38.571Z,9.40
2023-02-24T19:28:05.946Z,9.40
2023-02-24T19:30:33.280Z,9.50
2023-02-24T19:33:00.764Z,9.50
2023-02-24T19:35:28.204Z,9.50
2023-02-24T19:37:55.612Z,9.50
2023-02-24T19:40:23.593Z,9.60
2023-02-24T19:42:51.842Z,9.60
2023-02-24T19:45:19.370Z,9.60
2023-02-24T19:47:46.980Z,9.60
2023-02-24T19:50:14.836Z,9.60
2023-02-24T19:52:42.802Z,9.60
2023-02-24T19:55:13.142Z,9.60
2023-02-24T19:57:40.451Z,9.70
2023-02-24T20:00:11.478Z,9.60
2023-02-24T20:02:41.909Z,9.60
2023-02-24T20:05:10.415Z,9.60
2023-02-24T20:07:37.882Z,9.60
2023-02-24T20:10:05.632Z,9.60
2023-02-24T20:12:33.003Z,9.60
2023-02-24T20:15:00.344Z,9.50
2023-02-24T20:17:27.660Z,9.50
2023-02-24T20:19:55.007Z,9.40
2023-02-24T20:22:22.345Z,9.40
2023-02-24T20:24:50.376Z,9.40
2023-02-24T20:27:19.075Z,9.40
2023-02-24T20:29:46.968Z,9.40
2023-02-24T20:32:14.493Z,9.40
2023-02-24T20:34:42.183Z,9.40
2023-02-24T20:37:09.467Z,9.40
2023-02-24T20:39:37.276Z,9.40
2023-02-24T20:42:04.674Z,9.40
2023-02-24T20:44:31.977Z,9.40
2023-02-24T20:46:59.342Z,9.40
2023-02-24T20:49:27.249Z,9.40
2023-02-24T20:51:54.576Z,9.30
2023-02-24T20:54:22.898Z,9.30
2023-02-24T20:56:50.254Z,9.20
2023-02-24T20:59:19.102Z,9.10
2023-02-24T21:01:47.797Z,9.00
2023-02-24T21:04:16.296Z,9.00
2023-02-24T21:06:43.574Z,8.90
2023-02-24T21:09:12.008Z,8.90
2023-02-24T21:11:39.304Z,8.90
2023-02-24T21:14:07.123Z,8.80
2023-02-24T21:16:37.189Z,8.70
2023-02-24T21:19:04.494Z,8.60
2023-02-24T21:21:31.796Z,8.40
2023-02-24T21:23:59.092Z,8.20
2023-02-24T21:26:29.080Z,8.00
2023-02-24T21:28:57.855Z,7.90
2023-02-24T21:31:25.635Z,7.80
2023-02-24T21:33:53.327Z,7.80
2023-02-24T21:36:23.356Z,7.70
2023-02-24T21:38:51.487Z,7.70
2023-02-24T21:41:21.542Z,7.60
2023-02-24T21:43:52.060Z,7.40
2023-02-24T21:46:19.418Z,7.40
2023-02-24T21:48:46.778Z,7.30
2023-02-24T21:51:14.307Z,7.30
2023-02-24T21:53:43.700Z,7.20
2023-02-24T21:56:16.452Z,7.20
2023-02-24T21:58:49.170Z,7.20
2023-02-24T22:01:18.338Z,7.10
2023-02-24T22:03:45.722Z,7.20
2023-02-24T22:06:14.102Z,7.20
2023-02-24T22:08:45.406Z,7.20
2023-02-24T22:11:14.515Z,7.20
2023-02-24T22:13:42.247Z,7.20
2023-02-24T22:16:11.374Z,7.20
2023-02-24T22:18:38.794Z,7.10
2023-02-24T22:21:13.135Z,7.00
2023-02-24T22:23:40.342Z,6.90
2023-02-24T22:26:08.842Z,6.90
2023-02-24T22:28:38.236Z,6.90
2023-02-24T22:31:06.082Z,6.80
2023-02-24T22:33:35.076Z,6.70
2023-02-24T22:36:03.790Z,6.50
2023-02-24T22:38:32.646Z,6.40
2023-02-24T22:41:00.754Z,6.30
2023-02-24T22:43:28.792Z,6.20
2023-02-24T22:46:01.832Z,6.20
2023-02-24T22:48:29.381Z,6.20
2023-02-24T22:50:57.393Z,6.10
2023-02-24T22:53:24.845Z,6.10
2023-02-24T22:55:52.202Z,6.10
2023-02-24T22:58:20.151Z,6.10
2023-02-24T23:00:47.756Z,6.20
2023-02-24T23:03:16.471Z,6.20
2023-02-24T23:05:54.485Z,6.20
2023-02-24T23:08:21.926Z,6.10
2023-02-24T23:10:49.441Z,6.10
2023-02-24T23:13:17.981Z,6.00
2023-02-24T23:15:45.364Z,6.00
2023-02-24T23:18:13.866Z,5.90
2023-02-24T23:20:42.203Z,5.90
2023-02-24T23:23:10.619Z,5.80
2023-02-24T23:25:38.810Z,5.80
2023-02-24T23:28:06.451Z,5.80
2023-02-24T23:30:35.261Z,5.80
2023-02-24T23:33:03.118Z,5.80
2023-02-24T23:35:30.436Z,5.70
2023-02-24T23:37:57.703Z,5.50
2023-02-24T23:40:26.235Z,5.30
2023-02-24T23:42:54.301Z,5.10
2023-02-24T23:45:21.695Z,5.00
2023-02-24T23:47:49.188Z,4.90
2023-02-24T23:50:17.037Z,4.90
2023-02-24T23:52:44.486Z,4.90
2023-02-24T23:55:11.801Z,4.80
2023-02-24T23:57:39.206Z,4.80
